sensor_id;sensor_type;location;lat;lon;timestamp;P1;durP1;ratioP1;P2;durP2;ratioP2
64686;SDS011;51113;53.646;-113.674;2024-03-08T00:00:20;6.07;;;3.45;;
64686;SDS011;51113;53.646;-113.674;2024-03-08T00:02:49;6.32;;;3.55;;
64686;SDS011;51113;53.646;-113.674;2024-03-08T00:05:22;7.72;;;4.00;;
64686;SDS011;51113;53.646;-113.674;2024-03-08T00:07:51;15.90;;;4.75;;
64686;SDS011;51113;53.646;-113.674;2024-03-08T00:10:21;8.88;;;4.07;;
64686;SDS011;51113;53.646;-113.674;2024-03-08T00:12:53;16.38;;;4.75;;
64686;SDS011;51113;53.646;-113.674;2024-03-08T00:15:21;8.55;;;3.97;;
64686;SDS011;51113;53.646;-113.674;2024-03-08T00:17:50;15.88;;;5.88;;
64686;SDS011;51113;53.646;-113.674;2024-03-08T00:20:19;13.73;;;4.55;;
64686;SDS011;51113;53.646;-113.674;2024-03-08T00:22:48;10.35;;;5.47;;
64686;SDS011;51113;53.646;-113.674;2024-03-08T00:25:17;10.00;;;4.57;;
64686;SDS011;51113;53.646;-113.674;2024-03-08T00:27:46;12.38;;;4.88;;
64686;SDS011;51113;53.646;-113.674;2024-03-08T00:30:17;14.77;;;4.97;;
64686;SDS011;51113;53.646;-113.674;2024-03-08T00:32:46;7.50;;;4.72;;
64686;SDS011;51113;53.646;-113.674;2024-03-08T00:35:15;15.70;;;5.05;;
64686;SDS011;51113;53.646;-113.674;2024-03-08T00:37:44;9.13;;;4.90;;
64686;SDS011;51113;53.646;-113.674;2024-03-08T00:40:16;11.90;;;4.93;;
64686;SDS011;51113;53.646;-113.674;2024-03-08T00:42:45;13.77;;;4.97;;
64686;SDS011;51113;53.646;-113.674;2024-03-08T00:45:13;9.18;;;4.65;;
64686;SDS011;51113;53.646;-113.674;2024-03-08T00:47:42;12.38;;;5.20;;
64686;SDS011;51113;53.646;-113.674;2024-03-08T00:50:11;10.32;;;5.13;;
64686;SDS011;51113;53.646;-113.674;2024-03-08T00:52:40;8.13;;;4.32;;
64686;SDS011;51113;53.646;-113.674;2024-03-08T00:55:09;12.00;;;5.22;;
64686;SDS011;51113;53.646;-113.674;2024-03-08T00:57:39;13.32;;;5.88;;
64686;SDS011;51113;53.646;-113.674;2024-03-08T01:00:09;9.70;;;3.85;;
64686;SDS011;51113;53.646;-113.674;2024-03-08T01:02:40;8.18;;;4.50;;
64686;SDS011;51113;53.646;-113.674;2024-03-08T01:05:09;16.10;;;5.55;;
64686;SDS011;51113;53.646;-113.674;2024-03-08T01:07:37;9.18;;;4.88;;
64686;SDS011;51113;53.646;-113.674;2024-03-08T01:10:05;14.27;;;3.88;;
64686;SDS011;51113;53.646;-113.674;2024-03-08T01:12:38;12.25;;;5.07;;
64686;SDS011;51113;53.646;-113.674;2024-03-08T01:15:07;15.80;;;4.53;;
64686;SDS011;51113;53.646;-113.674;2024-03-08T01:17:36;7.00;;;4.50;;
64686;SDS011;51113;53.646;-113.674;2024-03-08T01:20:06;11.75;;;4.82;;
64686;SDS011;51113;53.646;-113.674;2024-03-08T01:22:39;7.88;;;4.13;;
64686;SDS011;51113;53.646;-113.674;2024-03-08T01:25:08;7.85;;;4.47;;
64686;SDS011;51113;53.646;-113.674;2024-03-08T01:27:37;12.20;;;4.50;;
64686;SDS011;51113;53.646;-113.674;2024-03-08T01:30:05;11.73;;;4.05;;
64686;SDS011;51113;53.646;-113.674;2024-03-08T01:32:37;6.97;;;4.35;;
64686;SDS011;51113;53.646;-113.674;2024-03-08T01:35:05;11.55;;;5.30;;
64686;SDS011;51113;53.646;-113.674;2024-03-08T01:37:37;11.73;;;5.63;;
64686;SDS011;51113;53.646;-113.674;2024-03-08T01:40:06;8.32;;;4.63;;
64686;SDS011;51113;53.646;-113.674;2024-03-08T01:42:36;8.85;;;3.95;;
64686;SDS011;51113;53.646;-113.674;2024-03-08T01:45:07;8.88;;;4.32;;
64686;SDS011;51113;53.646;-113.674;2024-03-08T01:47:36;6.13;;;4.22;;
64686;SDS011;51113;53.646;-113.674;2024-03-08T01:50:06;10.98;;;3.78;;
64686;SDS011;51113;53.646;-113.674;2024-03-08T01:52:36;11.73;;;4.40;;
64686;SDS011;51113;53.646;-113.674;2024-03-08T01:55:05;9.68;;;3.72;;
64686;SDS011;51113;53.646;-113.674;2024-03-08T01:57:37;7.28;;;4.47;;
64686;SDS011;51113;53.646;-113.674;2024-03-08T02:00:06;9.25;;;5.03;;
64686;SDS011;51113;53.646;-113.674;2024-03-08T02:02:38;8.13;;;4.95;;
64686;SDS011;51113;53.646;-113.674;2024-03-08T02:05:11;11.47;;;3.97;;
64686;SDS011;51113;53.646;-113.674;2024-03-08T02:07:42;10.98;;;4.18;;
64686;SDS011;51113;53.646;-113.674;2024-03-08T02:10:11;9.48;;;4.28;;
64686;SDS011;51113;53.646;-113.674;2024-03-08T02:12:41;6.38;;;4.35;;
64686;SDS011;51113;53.646;-113.674;2024-03-08T02:15:10;11.88;;;5.50;;
64686;SDS011;51113;53.646;-113.674;2024-03-08T02:17:39;7.75;;;4.18;;
64686;SDS011;51113;53.646;-113.674;2024-03-08T02:20:08;6.35;;;3.97;;
64686;SDS011;51113;53.646;-113.674;2024-03-08T02:22:38;15.55;;;4.70;;
64686;SDS011;51113;53.646;-113.674;2024-03-08T02:25:07;8.48;;;4.78;;
64686;SDS011;51113;53.646;-113.674;2024-03-08T02:27:37;8.93;;;5.13;;
64686;SDS011;51113;53.646;-113.674;2024-03-08T02:30:05;5.78;;;4.07;;
64686;SDS011;51113;53.646;-113.674;2024-03-08T02:32:35;7.50;;;4.57;;
64686;SDS011;51113;53.646;-113.674;2024-03-08T02:35:03;7.72;;;3.92;;
64686;SDS011;51113;53.646;-113.674;2024-03-08T02:37:34;9.48;;;5.00;;
64686;SDS011;51113;53.646;-113.674;2024-03-08T02:40:02;6.22;;;4.35;;
64686;SDS011;51113;53.646;-113.674;2024-03-08T02:42:31;10.35;;;4.78;;
64686;SDS011;51113;53.646;-113.674;2024-03-08T02:45:00;6.78;;;3.83;;
64686;SDS011;51113;53.646;-113.674;2024-03-08T02:47:29;9.88;;;5.03;;
64686;SDS011;51113;53.646;-113.674;2024-03-08T02:49:59;8.63;;;4.88;;
64686;SDS011;51113;53.646;-113.674;2024-03-08T02:52:29;10.23;;;4.13;;
64686;SDS011;51113;53.646;-113.674;2024-03-08T02:54:58;9.02;;;4.35;;
64686;SDS011;51113;53.646;-113.674;2024-03-08T02:57:27;4.22;;;3.33;;
64686;SDS011;51113;53.646;-113.674;2024-03-08T02:59:56;7.55;;;4.38;;
64686;SDS011;51113;53.646;-113.674;2024-03-08T03:02:27;6.20;;;3.83;;
64686;SDS011;51113;53.646;-113.674;2024-03-08T03:04:56;15.05;;;4.70;;
64686;SDS011;51113;53.646;-113.674;2024-03-08T03:07:25;9.80;;;4.50;;
64686;SDS011;51113;53.646;-113.674;2024-03-08T03:09:55;6.53;;;3.42;;
64686;SDS011;51113;53.646;-113.674;2024-03-08T03:12:24;5.10;;;3.45;;
64686;SDS011;51113;53.646;-113.674;2024-03-08T03:14:52;16.35;;;4.55;;
64686;SDS011;51113;53.646;-113.674;2024-03-08T03:17:22;10.25;;;5.28;;
64686;SDS011;51113;53.646;-113.674;2024-03-08T03:19:54;9.98;;;4.65;;
64686;SDS011;51113;53.646;-113.674;2024-03-08T03:22:23;7.30;;;3.90;;
64686;SDS011;51113;53.646;-113.674;2024-03-08T03:24:53;8.63;;;3.42;;
64686;SDS011;51113;53.646;-113.674;2024-03-08T03:27:22;23.23;;;5.80;;
64686;SDS011;51113;53.646;-113.674;2024-03-08T03:29:51;6.47;;;3.95;;
64686;SDS011;51113;53.646;-113.674;2024-03-08T03:32:20;6.72;;;3.10;;
64686;SDS011;51113;53.646;-113.674;2024-03-08T03:34:48;8.18;;;4.53;;
64686;SDS011;51113;53.646;-113.674;2024-03-08T03:37:20;6.65;;;3.38;;
64686;SDS011;51113;53.646;-113.674;2024-03-08T03:39:49;5.80;;;3.40;;
64686;SDS011;51113;53.646;-113.674;2024-03-08T03:42:20;7.32;;;4.38;;
64686;SDS011;51113;53.646;-113.674;2024-03-08T03:44:49;6.28;;;4.15;;
64686;SDS011;51113;53.646;-113.674;2024-03-08T03:47:18;6.85;;;3.97;;
64686;SDS011;51113;53.646;-113.674;2024-03-08T03:49:45;6.60;;;3.60;;
64686;SDS011;51113;53.646;-113.674;2024-03-08T03:52:14;6.90;;;4.28;;
64686;SDS011;51113;53.646;-113.674;2024-03-08T03:54:43;11.57;;;3.60;;
64686;SDS011;51113;53.646;-113.674;2024-03-08T03:57:12;15.13;;;3.78;;
64686;SDS011;51113;53.646;-113.674;2024-03-08T03:59:40;5.68;;;3.20;;
64686;SDS011;51113;53.646;-113.674;2024-03-08T04:02:09;7.65;;;4.30;;
64686;SDS011;51113;53.646;-113.674;2024-03-08T04:04:38;6.00;;;3.42;;
64686;SDS011;51113;53.646;-113.674;2024-03-08T04:07:06;11.27;;;3.40;;
64686;SDS011;51113;53.646;-113.674;2024-03-08T04:09:35;6.55;;;4.32;;
64686;SDS011;51113;53.646;-113.674;2024-03-08T04:12:04;7.32;;;3.08;;
64686;SDS011;51113;53.646;-113.674;2024-03-08T04:14:33;5.53;;;3.45;;
64686;SDS011;51113;53.646;-113.674;2024-03-08T04:17:02;9.40;;;4.53;;
64686;SDS011;51113;53.646;-113.674;2024-03-08T04:19:30;4.75;;;2.72;;
64686;SDS011;51113;53.646;-113.674;2024-03-08T04:21:59;7.72;;;4.68;;
64686;SDS011;51113;53.646;-113.674;2024-03-08T04:24:28;4.00;;;3.03;;
64686;SDS011;51113;53.646;-113.674;2024-03-08T04:26:58;5.90;;;3.42;;
64686;SDS011;51113;53.646;-113.674;2024-03-08T04:29:27;5.40;;;2.55;;
64686;SDS011;51113;53.646;-113.674;2024-03-08T04:31:56;5.40;;;3.00;;
64686;SDS011;51113;53.646;-113.674;2024-03-08T04:34:26;7.95;;;3.80;;
64686;SDS011;51113;53.646;-113.674;2024-03-08T04:36:57;6.47;;;3.72;;
64686;SDS011;51113;53.646;-113.674;2024-03-08T04:39:25;5.15;;;3.65;;
64686;SDS011;51113;53.646;-113.674;2024-03-08T04:41:59;5.80;;;3.13;;
64686;SDS011;51113;53.646;-113.674;2024-03-08T04:44:37;6.75;;;3.97;;
64686;SDS011;51113;53.646;-113.674;2024-03-08T04:47:06;7.47;;;2.63;;
64686;SDS011;51113;53.646;-113.674;2024-03-08T04:49:35;5.00;;;2.83;;
64686;SDS011;51113;53.646;-113.674;2024-03-08T04:52:04;4.43;;;2.90;;
64686;SDS011;51113;53.646;-113.674;2024-03-08T04:54:33;4.05;;;2.80;;
64686;SDS011;51113;53.646;-113.674;2024-03-08T04:57:02;5.15;;;3.33;;
64686;SDS011;51113;53.646;-113.674;2024-03-08T04:59:35;18.75;;;3.67;;
64686;SDS011;51113;53.646;-113.674;2024-03-08T05:02:04;3.63;;;2.67;;
64686;SDS011;51113;53.646;-113.674;2024-03-08T05:04:32;6.43;;;2.55;;
64686;SDS011;51113;53.646;-113.674;2024-03-08T05:07:01;7.22;;;3.63;;
64686;SDS011;51113;53.646;-113.674;2024-03-08T05:09:30;4.90;;;3.17;;
64686;SDS011;51113;53.646;-113.674;2024-03-08T05:11:59;7.07;;;3.00;;
64686;SDS011;51113;53.646;-113.674;2024-03-08T05:14:29;5.25;;;2.95;;
64686;SDS011;51113;53.646;-113.674;2024-03-08T05:16:58;8.43;;;2.97;;
64686;SDS011;51113;53.646;-113.674;2024-03-08T05:19:28;5.57;;;2.50;;
64686;SDS011;51113;53.646;-113.674;2024-03-08T05:22:00;3.97;;;2.22;;
64686;SDS011;51113;53.646;-113.674;2024-03-08T05:24:29;4.25;;;2.60;;
64686;SDS011;51113;53.646;-113.674;2024-03-08T05:26:58;5.57;;;2.65;;
64686;SDS011;51113;53.646;-113.674;2024-03-08T05:29:28;7.20;;;3.75;;
64686;SDS011;51113;53.646;-113.674;2024-03-08T05:31:57;4.03;;;2.10;;
64686;SDS011;51113;53.646;-113.674;2024-03-08T05:34:27;4.35;;;2.72;;
64686;SDS011;51113;53.646;-113.674;2024-03-08T05:36:56;3.42;;;2.33;;
64686;SDS011;51113;53.646;-113.674;2024-03-08T05:39:26;8.23;;;3.22;;
64686;SDS011;51113;53.646;-113.674;2024-03-08T05:41:54;3.88;;;2.75;;
64686;SDS011;51113;53.646;-113.674;2024-03-08T05:44:24;4.60;;;2.60;;
64686;SDS011;51113;53.646;-113.674;2024-03-08T05:46:52;4.70;;;2.20;;
64686;SDS011;51113;53.646;-113.674;2024-03-08T05:49:21;4.28;;;2.38;;
64686;SDS011;51113;53.646;-113.674;2024-03-08T05:51:50;5.53;;;3.38;;
64686;SDS011;51113;53.646;-113.674;2024-03-08T05:54:19;3.80;;;1.77;;
64686;SDS011;51113;53.646;-113.674;2024-03-08T05:56:51;16.45;;;2.15;;
64686;SDS011;51113;53.646;-113.674;2024-03-08T05:59:20;3.15;;;2.20;;
64686;SDS011;51113;53.646;-113.674;2024-03-08T06:01:51;3.55;;;2.42;;
64686;SDS011;51113;53.646;-113.674;2024-03-08T06:04:19;16.48;;;2.50;;
64686;SDS011;51113;53.646;-113.674;2024-03-08T06:06:48;2.60;;;2.17;;
64686;SDS011;51113;53.646;-113.674;2024-03-08T06:09:19;6.10;;;2.70;;
64686;SDS011;51113;53.646;-113.674;2024-03-08T06:11:54;2.83;;;1.88;;
64686;SDS011;51113;53.646;-113.674;2024-03-08T06:14:23;4.68;;;3.03;;
64686;SDS011;51113;53.646;-113.674;2024-03-08T06:16:51;2.42;;;1.67;;
64686;SDS011;51113;53.646;-113.674;2024-03-08T06:19:20;9.13;;;2.47;;
64686;SDS011;51113;53.646;-113.674;2024-03-08T06:21:49;2.58;;;1.83;;
64686;SDS011;51113;53.646;-113.674;2024-03-08T06:24:18;9.32;;;2.88;;
64686;SDS011;51113;53.646;-113.674;2024-03-08T06:26:47;6.13;;;2.10;;
64686;SDS011;51113;53.646;-113.674;2024-03-08T06:29:16;2.47;;;1.95;;
64686;SDS011;51113;53.646;-113.674;2024-03-08T06:31:45;4.45;;;2.40;;
64686;SDS011;51113;53.646;-113.674;2024-03-08T06:34:14;2.42;;;1.63;;
64686;SDS011;51113;53.646;-113.674;2024-03-08T06:36:43;2.80;;;2.17;;
64686;SDS011;51113;53.646;-113.674;2024-03-08T06:39:12;9.80;;;2.60;;
64686;SDS011;51113;53.646;-113.674;2024-03-08T06:41:40;5.00;;;2.17;;
64686;SDS011;51113;53.646;-113.674;2024-03-08T06:44:09;3.53;;;2.22;;
64686;SDS011;51113;53.646;-113.674;2024-03-08T06:46:38;4.68;;;2.10;;
64686;SDS011;51113;53.646;-113.674;2024-03-08T06:49:07;4.72;;;1.63;;
64686;SDS011;51113;53.646;-113.674;2024-03-08T06:51:37;4.95;;;3.22;;
64686;SDS011;51113;53.646;-113.674;2024-03-08T06:54:05;3.03;;;1.98;;
64686;SDS011;51113;53.646;-113.674;2024-03-08T06:56:36;4.10;;;2.33;;
64686;SDS011;51113;53.646;-113.674;2024-03-08T06:59:05;2.75;;;1.83;;
64686;SDS011;51113;53.646;-113.674;2024-03-08T07:01:39;2.30;;;1.50;;
64686;SDS011;51113;53.646;-113.674;2024-03-08T07:04:08;3.65;;;2.15;;
64686;SDS011;51113;53.646;-113.674;2024-03-08T07:06:37;3.22;;;1.45;;
64686;SDS011;51113;53.646;-113.674;2024-03-08T07:09:05;2.00;;;1.70;;
64686;SDS011;51113;53.646;-113.674;2024-03-08T07:11:34;3.58;;;2.25;;
64686;SDS011;51113;53.646;-113.674;2024-03-08T07:14:07;4.05;;;2.03;;
64686;SDS011;51113;53.646;-113.674;2024-03-08T07:16:36;2.45;;;2.08;;
64686;SDS011;51113;53.646;-113.674;2024-03-08T07:19:06;3.80;;;1.95;;
64686;SDS011;51113;53.646;-113.674;2024-03-08T07:21:34;2.55;;;1.77;;
64686;SDS011;51113;53.646;-113.674;2024-03-08T07:24:04;2.08;;;1.45;;
64686;SDS011;51113;53.646;-113.674;2024-03-08T07:26:45;3.05;;;1.77;;
64686;SDS011;51113;53.646;-113.674;2024-03-08T07:29:18;9.23;;;3.92;;
64686;SDS011;51113;53.646;-113.674;2024-03-08T07:31:46;7.20;;;1.83;;
64686;SDS011;51113;53.646;-113.674;2024-03-08T07:34:39;2.43;;;2.13;;
64686;SDS011;51113;53.646;-113.674;2024-03-08T07:37:09;5.38;;;1.80;;
64686;SDS011;51113;53.646;-113.674;2024-03-08T07:39:38;3.78;;;1.63;;
64686;SDS011;51113;53.646;-113.674;2024-03-08T07:42:07;2.00;;;1.70;;
64686;SDS011;51113;53.646;-113.674;2024-03-08T07:44:36;3.13;;;1.58;;
64686;SDS011;51113;53.646;-113.674;2024-03-08T07:47:04;4.97;;;1.58;;
64686;SDS011;51113;53.646;-113.674;2024-03-08T07:49:37;4.10;;;1.80;;
64686;SDS011;51113;53.646;-113.674;2024-03-08T07:52:05;1.42;;;1.23;;
64686;SDS011;51113;53.646;-113.674;2024-03-08T07:54:35;2.50;;;2.30;;
64686;SDS011;51113;53.646;-113.674;2024-03-08T07:57:04;4.28;;;2.45;;
64686;SDS011;51113;53.646;-113.674;2024-03-08T07:59:34;1.55;;;1.45;;
64686;SDS011;51113;53.646;-113.674;2024-03-08T08:02:03;1.60;;;1.33;;
64686;SDS011;51113;53.646;-113.674;2024-03-08T08:04:32;9.00;;;2.03;;
64686;SDS011;51113;53.646;-113.674;2024-03-08T08:07:01;2.20;;;1.45;;
64686;SDS011;51113;53.646;-113.674;2024-03-08T08:09:29;9.20;;;2.10;;
64686;SDS011;51113;53.646;-113.674;2024-03-08T08:12:02;1.90;;;1.58;;
64686;SDS011;51113;53.646;-113.674;2024-03-08T08:14:31;1.60;;;1.48;;
64686;SDS011;51113;53.646;-113.674;2024-03-08T08:16:59;1.60;;;1.45;;
64686;SDS011;51113;53.646;-113.674;2024-03-08T08:19:32;1.63;;;1.52;;
64686;SDS011;51113;53.646;-113.674;2024-03-08T08:22:01;3.80;;;1.33;;
64686;SDS011;51113;53.646;-113.674;2024-03-08T08:24:31;5.63;;;2.20;;
64686;SDS011;51113;53.646;-113.674;2024-03-08T08:26:59;2.45;;;1.85;;
64686;SDS011;51113;53.646;-113.674;2024-03-08T08:29:28;2.22;;;1.70;;
64686;SDS011;51113;53.646;-113.674;2024-03-08T08:31:58;1.80;;;1.13;;
64686;SDS011;51113;53.646;-113.674;2024-03-08T08:34:29;3.38;;;2.13;;
64686;SDS011;51113;53.646;-113.674;2024-03-08T08:36:59;5.50;;;1.52;;
64686;SDS011;51113;53.646;-113.674;2024-03-08T08:39:28;5.28;;;1.48;;
64686;SDS011;51113;53.646;-113.674;2024-03-08T08:41:57;2.35;;;1.50;;
64686;SDS011;51113;53.646;-113.674;2024-03-08T08:44:25;3.53;;;1.48;;
64686;SDS011;51113;53.646;-113.674;2024-03-08T08:46:55;5.22;;;1.95;;
64686;SDS011;51113;53.646;-113.674;2024-03-08T08:49:35;1.77;;;1.63;;
64686;SDS011;51113;53.646;-113.674;2024-03-08T08:52:04;2.63;;;1.83;;
64686;SDS011;51113;53.646;-113.674;2024-03-08T08:54:42;0.95;;;0.95;;
64686;SDS011;51113;53.646;-113.674;2024-03-08T08:57:16;2.08;;;1.30;;
64686;SDS011;51113;53.646;-113.674;2024-03-08T08:59:45;2.22;;;1.38;;
64686;SDS011;51113;53.646;-113.674;2024-03-08T09:02:13;4.95;;;1.50;;
64686;SDS011;51113;53.646;-113.674;2024-03-08T09:04:44;2.58;;;1.75;;
64686;SDS011;51113;53.646;-113.674;2024-03-08T09:07:13;4.85;;;1.88;;
64686;SDS011;51113;53.646;-113.674;2024-03-08T09:09:43;2.13;;;1.25;;
64686;SDS011;51113;53.646;-113.674;2024-03-08T09:12:11;7.85;;;2.03;;
64686;SDS011;51113;53.646;-113.674;2024-03-08T09:14:43;3.10;;;1.70;;
64686;SDS011;51113;53.646;-113.674;2024-03-08T09:17:12;1.98;;;1.60;;
64686;SDS011;51113;53.646;-113.674;2024-03-08T09:19:45;1.60;;;1.40;;
64686;SDS011;51113;53.646;-113.674;2024-03-08T09:22:15;2.60;;;1.85;;
64686;SDS011;51113;53.646;-113.674;2024-03-08T09:24:44;1.20;;;1.10;;
64686;SDS011;51113;53.646;-113.674;2024-03-08T09:27:13;2.22;;;1.92;;
64686;SDS011;51113;53.646;-113.674;2024-03-08T09:29:42;1.90;;;1.23;;
64686;SDS011;51113;53.646;-113.674;2024-03-08T09:32:11;1.52;;;1.35;;
64686;SDS011;51113;53.646;-113.674;2024-03-08T09:34:40;1.23;;;1.10;;
64686;SDS011;51113;53.646;-113.674;2024-03-08T09:37:09;2.05;;;1.70;;
64686;SDS011;51113;53.646;-113.674;2024-03-08T09:39:38;1.45;;;1.33;;
64686;SDS011;51113;53.646;-113.674;2024-03-08T09:42:06;1.52;;;1.10;;
64686;SDS011;51113;53.646;-113.674;2024-03-08T09:44:35;0.90;;;0.90;;
64686;SDS011;51113;53.646;-113.674;2024-03-08T09:47:05;2.55;;;1.35;;
64686;SDS011;51113;53.646;-113.674;2024-03-08T09:49:34;0.93;;;0.90;;
64686;SDS011;51113;53.646;-113.674;2024-03-08T09:52:04;0.95;;;0.95;;
64686;SDS011;51113;53.646;-113.674;2024-03-08T09:54:34;1.70;;;1.48;;
64686;SDS011;51113;53.646;-113.674;2024-03-08T09:57:06;3.65;;;1.77;;
64686;SDS011;51113;53.646;-113.674;2024-03-08T09:59:36;1.10;;;1.05;;
64686;SDS011;51113;53.646;-113.674;2024-03-08T10:02:05;4.50;;;1.15;;
64686;SDS011;51113;53.646;-113.674;2024-03-08T10:04:33;1.45;;;1.35;;
64686;SDS011;51113;53.646;-113.674;2024-03-08T10:07:02;2.80;;;1.27;;
64686;SDS011;51113;53.646;-113.674;2024-03-08T10:09:31;1.73;;;1.27;;
64686;SDS011;51113;53.646;-113.674;2024-03-08T10:12:00;3.25;;;1.65;;
64686;SDS011;51113;53.646;-113.674;2024-03-08T10:14:29;8.35;;;1.42;;
64686;SDS011;51113;53.646;-113.674;2024-03-08T10:16:58;1.60;;;1.40;;
64686;SDS011;51113;53.646;-113.674;2024-03-08T10:19:28;0.93;;;0.93;;
64686;SDS011;51113;53.646;-113.674;2024-03-08T10:21:57;1.83;;;1.25;;
64686;SDS011;51113;53.646;-113.674;2024-03-08T10:24:26;0.70;;;0.70;;
64686;SDS011;51113;53.646;-113.674;2024-03-08T10:27:01;5.35;;;1.25;;
64686;SDS011;51113;53.646;-113.674;2024-03-08T10:29:32;1.33;;;1.10;;
64686;SDS011;51113;53.646;-113.674;2024-03-08T10:32:01;1.33;;;1.23;;
64686;SDS011;51113;53.646;-113.674;2024-03-08T10:34:30;1.27;;;0.93;;
64686;SDS011;51113;53.646;-113.674;2024-03-08T10:37:02;1.17;;;1.08;;
64686;SDS011;51113;53.646;-113.674;2024-03-08T10:39:34;1.10;;;1.00;;
64686;SDS011;51113;53.646;-113.674;2024-03-08T10:42:04;2.05;;;1.15;;
64686;SDS011;51113;53.646;-113.674;2024-03-08T10:44:47;1.42;;;1.33;;
64686;SDS011;51113;53.646;-113.674;2024-03-08T10:47:26;1.25;;;1.15;;
64686;SDS011;51113;53.646;-113.674;2024-03-08T10:52:36;1.05;;;0.93;;
64686;SDS011;51113;53.646;-113.674;2024-03-08T10:55:05;2.20;;;0.95;;
64686;SDS011;51113;53.646;-113.674;2024-03-08T10:57:39;1.02;;;0.93;;
64686;SDS011;51113;53.646;-113.674;2024-03-08T11:00:09;2.10;;;1.42;;
64686;SDS011;51113;53.646;-113.674;2024-03-08T11:02:43;0.80;;;0.80;;
64686;SDS011;51113;53.646;-113.674;2024-03-08T11:05:31;1.00;;;0.90;;
64686;SDS011;51113;53.646;-113.674;2024-03-08T11:10:52;5.78;;;1.40;;
64686;SDS011;51113;53.646;-113.674;2024-03-08T11:13:36;0.90;;;0.90;;
64686;SDS011;51113;53.646;-113.674;2024-03-08T11:16:09;1.77;;;1.25;;
64686;SDS011;51113;53.646;-113.674;2024-03-08T11:18:39;1.38;;;1.27;;
64686;SDS011;51113;53.646;-113.674;2024-03-08T11:21:08;1.00;;;0.98;;
64686;SDS011;51113;53.646;-113.674;2024-03-08T11:23:40;4.00;;;1.33;;
64686;SDS011;51113;53.646;-113.674;2024-03-08T11:26:19;1.55;;;1.45;;
64686;SDS011;51113;53.646;-113.674;2024-03-08T11:28:49;2.05;;;1.42;;
64686;SDS011;51113;53.646;-113.674;2024-03-08T11:31:24;2.47;;;1.42;;
64686;SDS011;51113;53.646;-113.674;2024-03-08T11:33:56;1.20;;;1.10;;
64686;SDS011;51113;53.646;-113.674;2024-03-08T11:36:25;1.40;;;1.05;;
64686;SDS011;51113;53.646;-113.674;2024-03-08T11:38:54;0.75;;;0.75;;
64686;SDS011;51113;53.646;-113.674;2024-03-08T11:41:27;2.15;;;1.95;;
64686;SDS011;51113;53.646;-113.674;2024-03-08T11:44:02;2.42;;;1.00;;
64686;SDS011;51113;53.646;-113.674;2024-03-08T11:46:37;1.02;;;0.88;;
64686;SDS011;51113;53.646;-113.674;2024-03-08T11:49:10;0.97;;;0.93;;
64686;SDS011;51113;53.646;-113.674;2024-03-08T11:51:39;0.90;;;0.90;;
64686;SDS011;51113;53.646;-113.674;2024-03-08T11:54:12;1.45;;;0.95;;
64686;SDS011;51113;53.646;-113.674;2024-03-08T11:56:41;1.10;;;1.00;;
64686;SDS011;51113;53.646;-113.674;2024-03-08T11:59:13;1.63;;;1.23;;
64686;SDS011;51113;53.646;-113.674;2024-03-08T12:01:42;2.58;;;1.42;;
64686;SDS011;51113;53.646;-113.674;2024-03-08T12:04:12;3.90;;;1.60;;
64686;SDS011;51113;53.646;-113.674;2024-03-08T12:06:41;2.13;;;1.27;;
64686;SDS011;51113;53.646;-113.674;2024-03-08T12:09:10;1.40;;;1.20;;
64686;SDS011;51113;53.646;-113.674;2024-03-08T12:11:40;3.55;;;0.82;;
64686;SDS011;51113;53.646;-113.674;2024-03-08T12:14:10;2.08;;;1.13;;
64686;SDS011;51113;53.646;-113.674;2024-03-08T12:16:39;1.48;;;1.25;;
64686;SDS011;51113;53.646;-113.674;2024-03-08T12:19:08;5.68;;;1.25;;
64686;SDS011;51113;53.646;-113.674;2024-03-08T12:21:38;2.40;;;1.50;;
64686;SDS011;51113;53.646;-113.674;2024-03-08T12:24:14;6.80;;;1.30;;
64686;SDS011;51113;53.646;-113.674;2024-03-08T12:26:47;14.82;;;2.47;;
64686;SDS011;51113;53.646;-113.674;2024-03-08T12:32:06;1.30;;;1.10;;
64686;SDS011;51113;53.646;-113.674;2024-03-08T12:34:39;0.88;;;0.88;;
64686;SDS011;51113;53.646;-113.674;2024-03-08T12:37:08;1.08;;;0.98;;
64686;SDS011;51113;53.646;-113.674;2024-03-08T12:39:37;0.95;;;0.95;;
64686;SDS011;51113;53.646;-113.674;2024-03-08T12:42:12;0.65;;;0.65;;
64686;SDS011;51113;53.646;-113.674;2024-03-08T12:44:41;1.42;;;1.33;;
64686;SDS011;51113;53.646;-113.674;2024-03-08T12:47:11;2.08;;;1.27;;
64686;SDS011;51113;53.646;-113.674;2024-03-08T12:49:39;0.93;;;0.90;;
64686;SDS011;51113;53.646;-113.674;2024-03-08T12:52:08;0.90;;;0.80;;
64686;SDS011;51113;53.646;-113.674;2024-03-08T12:54:38;1.40;;;0.98;;
64686;SDS011;51113;53.646;-113.674;2024-03-08T12:57:07;1.60;;;1.50;;
64686;SDS011;51113;53.646;-113.674;2024-03-08T12:59:36;1.80;;;1.13;;
64686;SDS011;51113;53.646;-113.674;2024-03-08T13:02:05;0.77;;;0.77;;
64686;SDS011;51113;53.646;-113.674;2024-03-08T13:04:37;1.35;;;1.23;;
64686;SDS011;51113;53.646;-113.674;2024-03-08T13:07:05;11.15;;;1.13;;
64686;SDS011;51113;53.646;-113.674;2024-03-08T13:09:34;1.52;;;1.42;;
64686;SDS011;51113;53.646;-113.674;2024-03-08T13:12:05;2.17;;;1.20;;
64686;SDS011;51113;53.646;-113.674;2024-03-08T13:14:34;1.17;;;1.08;;
64686;SDS011;51113;53.646;-113.674;2024-03-08T13:17:03;1.17;;;1.00;;
64686;SDS011;51113;53.646;-113.674;2024-03-08T13:19:32;3.20;;;1.65;;
64686;SDS011;51113;53.646;-113.674;2024-03-08T13:22:02;6.05;;;1.50;;
64686;SDS011;51113;53.646;-113.674;2024-03-08T13:24:32;6.97;;;2.75;;
64686;SDS011;51113;53.646;-113.674;2024-03-08T13:27:04;1.70;;;1.00;;
64686;SDS011;51113;53.646;-113.674;2024-03-08T13:29:47;1.77;;;1.35;;
64686;SDS011;51113;53.646;-113.674;2024-03-08T13:32:17;2.08;;;1.63;;
64686;SDS011;51113;53.646;-113.674;2024-03-08T13:34:48;1.13;;;1.02;;
64686;SDS011;51113;53.646;-113.674;2024-03-08T13:37:19;1.02;;;0.95;;
64686;SDS011;51113;53.646;-113.674;2024-03-08T13:39:48;1.15;;;1.05;;
64686;SDS011;51113;53.646;-113.674;2024-03-08T13:42:16;1.38;;;1.10;;
64686;SDS011;51113;53.646;-113.674;2024-03-08T13:47:17;0.73;;;0.73;;
64686;SDS011;51113;53.646;-113.674;2024-03-08T13:49:46;2.20;;;1.38;;
64686;SDS011;51113;53.646;-113.674;2024-03-08T13:52:14;2.10;;;1.33;;
64686;SDS011;51113;53.646;-113.674;2024-03-08T13:54:44;1.17;;;1.00;;
64686;SDS011;51113;53.646;-113.674;2024-03-08T13:57:13;1.80;;;1.35;;
64686;SDS011;51113;53.646;-113.674;2024-03-08T13:59:41;0.95;;;0.95;;
64686;SDS011;51113;53.646;-113.674;2024-03-08T14:02:10;0.95;;;0.95;;
64686;SDS011;51113;53.646;-113.674;2024-03-08T14:04:41;1.25;;;1.15;;
64686;SDS011;51113;53.646;-113.674;2024-03-08T14:07:09;1.10;;;1.00;;
64686;SDS011;51113;53.646;-113.674;2024-03-08T14:09:38;1.67;;;1.55;;
64686;SDS011;51113;53.646;-113.674;2024-03-08T14:12:10;1.17;;;0.68;;
64686;SDS011;51113;53.646;-113.674;2024-03-08T14:14:40;1.27;;;1.17;;
64686;SDS011;51113;53.646;-113.674;2024-03-08T14:17:12;1.38;;;1.15;;
64686;SDS011;51113;53.646;-113.674;2024-03-08T14:19:45;1.25;;;1.13;;
64686;SDS011;51113;53.646;-113.674;2024-03-08T14:22:14;0.85;;;0.85;;
64686;SDS011;51113;53.646;-113.674;2024-03-08T14:24:42;1.17;;;1.08;;
64686;SDS011;51113;53.646;-113.674;2024-03-08T14:27:12;1.60;;;1.20;;
64686;SDS011;51113;53.646;-113.674;2024-03-08T14:29:42;0.90;;;0.90;;
64686;SDS011;51113;53.646;-113.674;2024-03-08T14:32:14;2.17;;;1.50;;